Airfield :
LOGIN :

Register | Disclaimer

   EN    FR    IT 

 










Legend :    VFR   Marginal VFR   IFR   Intensive IFR   Very Intensive IFR
Visi :
Ceiling :
>= 8 km
>= 3000ft
5 to 8 km
1000 to 3000 ft
1500m to 5 km
500 to 1000 ft
800 to 1500m
200 to 500 ft
< 800m
< 200 ft
Symbols :   Thunderstorms  Fog  Heavy snow  Heavy precipitations  Wind > 20 kt
SIGMETs :     Misc.  Thunderstorms  Icing  Turbulence  Mountain Waves  Volcanic Ashes







- Airport Elevation : 194 ft


EBCV - Chièvres

CURRENT METAR :
  • 170725Z AUTO 18004KT 6000 FEW063/// 12/12 Q1022 WHT

EXPIRED METARs :
  • 170655Z AUTO 18004KT 6000 NCD 12/12 Q1022 WHT
  • 170625Z AUTO 18004KT 4700 BR NCD 11/11 Q1022 GRN
  • 170555Z AUTO 18004KT 4400 BR NCD 11/11 Q1022 GRN
  • 170540Z AUTO 19005KT 4700 NCD 11/11 Q1022 GRN
  • 170525Z AUTO 18005KT 7000 NCD 12/12 Q1022 WHT
  • 170455Z AUTO 19005KT 7000 NCD 12/11 Q1022 WHT
  • 170450Z AUTO 19005KT 6000 NCD 12/11 Q1022 WHT

TAF TAF EBCV
Valid from the 17 at 07:00 until the 17 at 16:00 UTC


170541Z 1707/1716 20005KT 9999 SCT110
TEMPO 1707/1709 4000 BR
PROB30
TEMPO 1707/1708 0800 FG SCT003 BY EBWM
No reported NOTAMs for that airfield.



MET'MAP, your aeronautical weather chart ! - Copyright ORBIFLY December 2007 - Disclaimer

ORBIFLY MET'MAP TEAM :

Programming & Development : Alexandra Zaïnal
Concept & Development : Baudouin d'Aumeries
Co-Development & Prog : Marc-Olivier Méhu
Technical & hardware support : Manuel Goepfert

Contact : metmap@orbifly.com




SOURCES & CREDITS :

   NOAA